sensor_id;sensor_type;location;lat;lon;timestamp;P1;durP1;ratioP1;P2;durP2;ratioP2
17261;SDS011;9873;52.236;21.002;2022-11-20T00:07:34;39.10;;;20.87;;
17261;SDS011;9873;52.236;21.002;2022-11-20T00:17:41;43.33;;;18.50;;
17261;SDS011;9873;52.236;21.002;2022-11-20T00:27:43;37.83;;;18.90;;
17261;SDS011;9873;52.236;21.002;2022-11-20T00:37:50;44.37;;;21.93;;
17261;SDS011;9873;52.236;21.002;2022-11-20T00:47:55;35.23;;;16.17;;
17261;SDS011;9873;52.236;21.002;2022-11-20T00:58:01;39.90;;;20.87;;
17261;SDS011;9873;52.236;21.002;2022-11-20T01:08:12;34.93;;;16.33;;
17261;SDS011;9873;52.236;21.002;2022-11-20T01:18:17;38.63;;;22.97;;
17261;SDS011;9873;52.236;21.002;2022-11-20T01:28:21;33.07;;;17.93;;
17261;SDS011;9873;52.236;21.002;2022-11-20T01:38:28;36.13;;;18.63;;
17261;SDS011;9873;52.236;21.002;2022-11-20T01:48:43;34.73;;;17.07;;
17261;SDS011;9873;52.236;21.002;2022-11-20T01:58:52;35.67;;;18.40;;
17261;SDS011;9873;52.236;21.002;2022-11-20T02:08:55;38.67;;;20.90;;
17261;SDS011;9873;52.236;21.002;2022-11-20T02:19:03;43.23;;;20.67;;
17261;SDS011;9873;52.236;21.002;2022-11-20T02:29:07;37.70;;;17.83;;
17261;SDS011;9873;52.236;21.002;2022-11-20T02:39:10;30.77;;;15.60;;
17261;SDS011;9873;52.236;21.002;2022-11-20T02:49:16;32.27;;;16.27;;
17261;SDS011;9873;52.236;21.002;2022-11-20T02:59:18;18.77;;;8.23;;
17261;SDS011;9873;52.236;21.002;2022-11-20T03:09:23;42.30;;;21.77;;
17261;SDS011;9873;52.236;21.002;2022-11-20T03:19:30;49.30;;;25.47;;
17261;SDS011;9873;52.236;21.002;2022-11-20T03:29:35;26.63;;;14.37;;
17261;SDS011;9873;52.236;21.002;2022-11-20T03:39:38;40.33;;;20.23;;
17261;SDS011;9873;52.236;21.002;2022-11-20T03:49:42;43.67;;;22.53;;
17261;SDS011;9873;52.236;21.002;2022-11-20T03:59:44;27.80;;;12.63;;
17261;SDS011;9873;52.236;21.002;2022-11-20T04:09:46;44.23;;;23.40;;
17261;SDS011;9873;52.236;21.002;2022-11-20T04:19:48;49.07;;;25.00;;
17261;SDS011;9873;52.236;21.002;2022-11-20T04:29:53;34.77;;;16.77;;
17261;SDS011;9873;52.236;21.002;2022-11-20T04:40:00;49.90;;;27.23;;
17261;SDS011;9873;52.236;21.002;2022-11-20T04:50:02;43.20;;;20.27;;
17261;SDS011;9873;52.236;21.002;2022-11-20T05:00:08;41.10;;;20.17;;
17261;SDS011;9873;52.236;21.002;2022-11-20T05:10:10;39.60;;;19.63;;
17261;SDS011;9873;52.236;21.002;2022-11-20T05:20:12;35.27;;;17.00;;
17261;SDS011;9873;52.236;21.002;2022-11-20T05:30:17;33.60;;;17.73;;
17261;SDS011;9873;52.236;21.002;2022-11-20T05:40:19;31.60;;;14.57;;
17261;SDS011;9873;52.236;21.002;2022-11-20T05:50:25;35.07;;;16.43;;
17261;SDS011;9873;52.236;21.002;2022-11-20T06:00:29;35.47;;;18.53;;
17261;SDS011;9873;52.236;21.002;2022-11-20T06:10:31;38.93;;;21.23;;
17261;SDS011;9873;52.236;21.002;2022-11-20T06:20:33;36.73;;;16.93;;
17261;SDS011;9873;52.236;21.002;2022-11-20T06:30:44;40.97;;;21.40;;
17261;SDS011;9873;52.236;21.002;2022-11-20T06:40:50;33.83;;;18.13;;
17261;SDS011;9873;52.236;21.002;2022-11-20T06:50:52;36.80;;;18.33;;
17261;SDS011;9873;52.236;21.002;2022-11-20T07:01:00;38.17;;;18.30;;
17261;SDS011;9873;52.236;21.002;2022-11-20T07:11:17;42.30;;;21.03;;
17261;SDS011;9873;52.236;21.002;2022-11-20T07:21:21;42.50;;;21.83;;
17261;SDS011;9873;52.236;21.002;2022-11-20T07:31:30;40.27;;;21.20;;
17261;SDS011;9873;52.236;21.002;2022-11-20T07:41:32;38.93;;;21.33;;
17261;SDS011;9873;52.236;21.002;2022-11-20T07:51:36;43.43;;;22.03;;
17261;SDS011;9873;52.236;21.002;2022-11-20T08:01:41;37.00;;;20.07;;
17261;SDS011;9873;52.236;21.002;2022-11-20T08:11:44;40.13;;;19.30;;
17261;SDS011;9873;52.236;21.002;2022-11-20T08:22:04;42.13;;;22.57;;
17261;SDS011;9873;52.236;21.002;2022-11-20T08:32:15;37.77;;;16.43;;
17261;SDS011;9873;52.236;21.002;2022-11-20T08:42:20;42.40;;;20.87;;
17261;SDS011;9873;52.236;21.002;2022-11-20T08:52:27;38.00;;;20.60;;
17261;SDS011;9873;52.236;21.002;2022-11-20T09:02:30;46.50;;;24.90;;
17261;SDS011;9873;52.236;21.002;2022-11-20T09:12:38;31.17;;;15.77;;
17261;SDS011;9873;52.236;21.002;2022-11-20T09:22:40;36.33;;;17.90;;
17261;SDS011;9873;52.236;21.002;2022-11-20T09:32:46;49.27;;;24.43;;
17261;SDS011;9873;52.236;21.002;2022-11-20T10:25:02;49.83;;;25.03;;
17261;SDS011;9873;52.236;21.002;2022-11-20T10:56:05;37.80;;;21.23;;
17261;SDS011;9873;52.236;21.002;2022-11-20T11:06:25;36.53;;;18.07;;
17261;SDS011;9873;52.236;21.002;2022-11-20T11:16:40;38.53;;;19.13;;
17261;SDS011;9873;52.236;21.002;2022-11-20T11:27:10;34.50;;;18.03;;
17261;SDS011;9873;52.236;21.002;2022-11-20T11:37:18;41.10;;;19.53;;
17261;SDS011;9873;52.236;21.002;2022-11-20T11:47:26;37.17;;;17.90;;
17261;SDS011;9873;52.236;21.002;2022-11-20T11:57:49;39.03;;;18.77;;
17261;SDS011;9873;52.236;21.002;2022-11-20T12:18:14;39.30;;;18.97;;
17261;SDS011;9873;52.236;21.002;2022-11-20T12:59:33;38.97;;;19.20;;
17261;SDS011;9873;52.236;21.002;2022-11-20T13:10:04;42.17;;;19.27;;
17261;SDS011;9873;52.236;21.002;2022-11-20T13:20:15;44.90;;;23.33;;
17261;SDS011;9873;52.236;21.002;2022-11-20T13:30:22;45.47;;;24.80;;
17261;SDS011;9873;52.236;21.002;2022-11-20T13:40:25;46.40;;;23.20;;
17261;SDS011;9873;52.236;21.002;2022-11-20T14:00:44;45.73;;;22.83;;
17261;SDS011;9873;52.236;21.002;2022-11-20T14:11:01;45.53;;;23.07;;
17261;SDS011;9873;52.236;21.002;2022-11-20T14:31:28;46.23;;;23.63;;
17261;SDS011;9873;52.236;21.002;2022-11-20T14:41:33;42.00;;;21.17;;
17261;SDS011;9873;52.236;21.002;2022-11-20T14:51:40;35.83;;;17.00;;
17261;SDS011;9873;52.236;21.002;2022-11-20T15:01:54;44.37;;;22.37;;
17261;SDS011;9873;52.236;21.002;2022-11-20T15:12:03;41.23;;;19.90;;
17261;SDS011;9873;52.236;21.002;2022-11-20T15:22:11;40.30;;;19.37;;
17261;SDS011;9873;52.236;21.002;2022-11-20T15:32:19;32.47;;;17.63;;
17261;SDS011;9873;52.236;21.002;2022-11-20T15:42:27;34.73;;;18.13;;
17261;SDS011;9873;52.236;21.002;2022-11-20T15:52:29;37.13;;;18.87;;
17261;SDS011;9873;52.236;21.002;2022-11-20T16:02:44;28.67;;;13.83;;
17261;SDS011;9873;52.236;21.002;2022-11-20T16:12:49;41.37;;;20.10;;
17261;SDS011;9873;52.236;21.002;2022-11-20T16:23:10;41.57;;;17.43;;
17261;SDS011;9873;52.236;21.002;2022-11-20T16:33:16;41.60;;;21.03;;
17261;SDS011;9873;52.236;21.002;2022-11-20T16:43:19;36.77;;;16.83;;
17261;SDS011;9873;52.236;21.002;2022-11-20T16:53:22;51.50;;;31.27;;
17261;SDS011;9873;52.236;21.002;2022-11-20T17:03:27;35.50;;;15.63;;
17261;SDS011;9873;52.236;21.002;2022-11-20T17:13:32;47.83;;;24.90;;
17261;SDS011;9873;52.236;21.002;2022-11-20T17:23:40;26.80;;;11.70;;
17261;SDS011;9873;52.236;21.002;2022-11-20T17:33:46;42.30;;;22.17;;
17261;SDS011;9873;52.236;21.002;2022-11-20T17:43:48;41.03;;;20.23;;
17261;SDS011;9873;52.236;21.002;2022-11-20T17:53:58;24.17;;;11.40;;
17261;SDS011;9873;52.236;21.002;2022-11-20T18:04:02;43.93;;;21.73;;
17261;SDS011;9873;52.236;21.002;2022-11-20T18:14:10;49.73;;;23.30;;
17261;SDS011;9873;52.236;21.002;2022-11-20T18:24:32;38.67;;;19.87;;
17261;SDS011;9873;52.236;21.002;2022-11-20T18:34:36;49.50;;;21.40;;
17261;SDS011;9873;52.236;21.002;2022-11-20T18:44:41;40.23;;;18.53;;
17261;SDS011;9873;52.236;21.002;2022-11-20T18:54:54;41.47;;;20.43;;
17261;SDS011;9873;52.236;21.002;2022-11-20T19:04:58;40.13;;;17.60;;
17261;SDS011;9873;52.236;21.002;2022-11-20T19:15:01;54.20;;;24.97;;
17261;SDS011;9873;52.236;21.002;2022-11-20T19:25:08;47.63;;;23.57;;
17261;SDS011;9873;52.236;21.002;2022-11-20T19:35:11;49.50;;;24.37;;
17261;SDS011;9873;52.236;21.002;2022-11-20T19:45:17;53.83;;;24.60;;
17261;SDS011;9873;52.236;21.002;2022-11-20T19:55:27;43.10;;;20.07;;
17261;SDS011;9873;52.236;21.002;2022-11-20T20:05:32;43.77;;;20.47;;
17261;SDS011;9873;52.236;21.002;2022-11-20T20:15:38;51.60;;;25.20;;
17261;SDS011;9873;52.236;21.002;2022-11-20T20:25:42;52.83;;;24.63;;
17261;SDS011;9873;52.236;21.002;2022-11-20T20:35:50;57.10;;;27.40;;
17261;SDS011;9873;52.236;21.002;2022-11-20T20:45:52;57.80;;;26.27;;
17261;SDS011;9873;52.236;21.002;2022-11-20T20:55:59;56.03;;;28.00;;
17261;SDS011;9873;52.236;21.002;2022-11-20T21:06:02;51.17;;;24.23;;
17261;SDS011;9873;52.236;21.002;2022-11-20T21:16:06;56.30;;;28.53;;
17261;SDS011;9873;52.236;21.002;2022-11-20T21:26:09;65.13;;;28.23;;
17261;SDS011;9873;52.236;21.002;2022-11-20T21:36:17;56.27;;;27.60;;
17261;SDS011;9873;52.236;21.002;2022-11-20T21:46:21;57.90;;;28.30;;
17261;SDS011;9873;52.236;21.002;2022-11-20T21:56:23;64.73;;;30.63;;
17261;SDS011;9873;52.236;21.002;2022-11-20T22:06:30;63.37;;;29.43;;
17261;SDS011;9873;52.236;21.002;2022-11-20T22:16:33;59.97;;;25.27;;
17261;SDS011;9873;52.236;21.002;2022-11-20T22:26:38;60.90;;;28.83;;
17261;SDS011;9873;52.236;21.002;2022-11-20T22:36:41;57.07;;;26.23;;
17261;SDS011;9873;52.236;21.002;2022-11-20T22:46:43;63.73;;;27.13;;
17261;SDS011;9873;52.236;21.002;2022-11-20T22:56:47;61.17;;;28.47;;
17261;SDS011;9873;52.236;21.002;2022-11-20T23:06:53;59.43;;;26.83;;
17261;SDS011;9873;52.236;21.002;2022-11-20T23:16:57;63.37;;;28.83;;
17261;SDS011;9873;52.236;21.002;2022-11-20T23:27:01;74.37;;;32.90;;
17261;SDS011;9873;52.236;21.002;2022-11-20T23:37:03;56.27;;;27.77;;
17261;SDS011;9873;52.236;21.002;2022-11-20T23:47:05;64.37;;;28.47;;
17261;SDS011;9873;52.236;21.002;2022-11-20T23:57:12;67.97;;;29.07;;
